»·PEaware :: N224LW KCOS-KASE

N224LW :: KCOS-KASE

FLIGHT INFORMATION

Flight Status: Arrived
Operator: Privately registered:
United States
More flights under this callsign
Pilot: Rod T. (6553)
Aircraft: CIRRUS SR-22 TURBO
(S22T)
More flights by this aircraft type
Origin: KCOS City Of Colorado Springs Mun
United States
Destination: KASE Aspen-Pitkin Co/Sardy
United States
More flights between these airports :: More routes between these airports
Route: +BRK V108 DBL
File this flight plan on PilotEdge
Remarks:
Altitude:
(Current/Filed)
17,000ft
Speed:
(Current/Filed)
180kts
Departed: 10-Feb-18 05:48 PM
Arrived: 10-Feb-18 06:40 PM
Distance/Time
Traveled:
104nm/0:52
Distance/Time
To Go:
Arrived

Flight Plot

Page will automatically refresh every two minutes.

Flight plan parsing failed; only flown route is shown


Map Options




Map Legend


Flown Route
Filed Route
Departure Airport
Arrival Airport
Navaid (VOR, NDB)
Fix

Horizontal Profiles

Position Reports

Time Latitude Longitude Heading Altitude Ground
Speed
10-Feb-18 17:43 38.808290 -104.720916 105 6189ft 0kts
10-Feb-18 17:44 38.808290 -104.720916 105 6189ft 0kts
10-Feb-18 17:45 38.808290 -104.720916 105 6189ft 0kts
10-Feb-18 17:46 38.808290 -104.720916 105 6189ft 0kts
10-Feb-18 17:47 38.808290 -104.720916 105 6189ft 0kts
10-Feb-18 17:48 38.808290 -104.720916 105 6189ft 0kts
10-Feb-18 17:49 38.812522 -104.720122 86 6189ft 17kts
10-Feb-18 17:50 38.816996 -104.717773 357 6189ft 22kts
10-Feb-18 17:51 38.822173 -104.718073 59 6189ft 0kts
10-Feb-18 17:52 38.822173 -104.718073 59 6189ft 0kts
10-Feb-18 17:53 38.822363 -104.717472 63 6189ft 0kts
10-Feb-18 17:54 38.822254 -104.715919 175 6189ft 23kts
10-Feb-18 17:55 38.795138 -104.714975 176 6887ft 128kts
10-Feb-18 17:56 38.758234 -104.713643 177 8203ft 133kts
10-Feb-18 17:57 38.721141 -104.711801 177 9561ft 135kts
10-Feb-18 17:57 38.693158 -104.704173 122 10588ft 137kts
10-Feb-18 17:59 38.721565 -104.675916 7 12063ft 141kts
10-Feb-18 18:00 38.760652 -104.668749 8 13316ft 144kts
10-Feb-18 18:00 38.788569 -104.663423 8 14175ft 146kts
10-Feb-18 18:01 38.825795 -104.653802 2 15458ft 141kts
10-Feb-18 18:03 38.866538 -104.644348 357 16598ft 147kts
10-Feb-18 18:03 38.902969 -104.637494 357 16985ft 179kts
10-Feb-18 18:04 38.946781 -104.646127 291 16984ft 159kts
10-Feb-18 18:05 38.958802 -104.694117 285 16978ft 161kts
10-Feb-18 18:06 38.971521 -104.749504 285 16977ft 161kts
10-Feb-18 18:07 38.984135 -104.804650 285 16977ft 162kts
10-Feb-18 18:08 38.996823 -104.860248 285 16977ft 162kts
10-Feb-18 18:09 39.009533 -104.916125 285 16969ft 167kts
10-Feb-18 18:10 39.023164 -104.976817 285 16978ft 183kts
10-Feb-18 18:11 39.037574 -105.041616 286 16878ft 195kts
10-Feb-18 18:12 39.052565 -105.108762 287 16868ft 194kts
10-Feb-18 18:13 39.067505 -105.175133 287 16867ft 192kts
10-Feb-18 18:14 39.082291 -105.240988 287 16868ft 191kts
10-Feb-18 18:15 39.097015 -105.306786 287 16868ft 191kts
10-Feb-18 18:16 39.111668 -105.372402 287 16869ft 191kts
10-Feb-18 18:17 39.126352 -105.438372 287 16868ft 191kts
10-Feb-18 18:18 39.141000 -105.504378 287 16868ft 191kts
10-Feb-18 18:19 39.155611 -105.570414 287 16868ft 191kts
10-Feb-18 18:20 39.170191 -105.636508 287 16868ft 192kts
10-Feb-18 18:21 39.184671 -105.702358 286 16869ft 192kts
10-Feb-18 18:23 39.199163 -105.768433 286 16869ft 192kts
10-Feb-18 18:24 39.213866 -105.834694 285 16844ft 194kts
10-Feb-18 18:25 39.228442 -105.901307 285 16885ft 193kts
10-Feb-18 18:26 39.242966 -105.968154 285 16887ft 194kts
10-Feb-18 18:27 39.257498 -106.035231 285 16887ft 194kts
10-Feb-18 18:28 39.272024 -106.102478 285 16887ft 194kts
10-Feb-18 18:29 39.286487 -106.169617 285 16887ft 194kts
10-Feb-18 18:30 39.300111 -106.236698 287 16912ft 193kts
10-Feb-18 18:31 39.314217 -106.303652 288 16915ft 193kts
10-Feb-18 18:32 39.328456 -106.370454 288 16915ft 193kts
10-Feb-18 18:33 39.342631 -106.437047 288 16915ft 193kts
10-Feb-18 18:34 39.356831 -106.504004 288 16915ft 193kts
10-Feb-18 18:35 39.367614 -106.573488 284 16595ft 205kts
10-Feb-18 18:36 39.379738 -106.631093 288 16200ft 207kts
10-Feb-18 18:37 39.396204 -106.701665 285 15704ft 205kts
10-Feb-18 18:38 39.411924 -106.772186 286 15206ft 204kts
10-Feb-18 18:39 39.427570 -106.843330 287 14705ft 208kts
10-Feb-18 18:40 39.432146 -106.914610 243 14130ft 201kts
10-Feb-18 18:41 39.396805 -106.952151 160 13233ft 178kts
10-Feb-18 18:42 39.351660 -106.930672 158 12310ft 162kts
10-Feb-18 18:43 39.314467 -106.912034 161 11627ft 133kts
10-Feb-18 18:44 39.281858 -106.896343 162 10496ft 125kts
10-Feb-18 18:45 39.250653 -106.881579 163 8661ft 115kts
10-Feb-18 18:46 39.227021 -106.870733 157 7820ft 53kts
10-Feb-18 18:47 39.225701 -106.868963 127 7820ft 0kts
10-Feb-18 18:48 39.222734 -106.866587 8 7820ft 11kts
10-Feb-18 18:49 39.222852 -106.866768 284 7820ft 0kts
10-Feb-18 18:50 39.222852 -106.866768 284 7820ft 0kts
10-Feb-18 18:51 39.222852 -106.866768 284 7820ft 0kts
10-Feb-18 18:52 39.222799 -106.866977 252 7820ft 0kts
10-Feb-18 18:53 39.222799 -106.866977 252 7820ft 0kts

Navigation Log

Ident Type
Flight plan parsing failed, navigation log unavailable